createdAt,value
2018-12-18T00:01:56.203Z,27.45
2018-12-18T00:04:24.580Z,29.85
2018-12-18T00:06:52.977Z,26.07
2018-12-18T00:09:21.353Z,26.17
2018-12-18T00:11:49.746Z,26.80
2018-12-18T00:14:18.539Z,29.00
2018-12-18T00:16:47.200Z,28.87
2018-12-18T00:19:15.774Z,28.42
2018-12-18T00:21:44.255Z,29.18
2018-12-18T00:24:12.812Z,30.40
2018-12-18T00:26:41.240Z,26.17
2018-12-18T00:29:09.658Z,26.77
2018-12-18T00:31:38.104Z,28.80
2018-12-18T00:34:06.451Z,27.70
2018-12-18T00:36:34.826Z,26.30
2018-12-18T00:39:03.520Z,26.57
2018-12-18T00:41:32.319Z,30.43
2018-12-18T00:44:00.693Z,23.05
2018-12-18T00:46:29.038Z,27.80
2018-12-18T00:48:57.475Z,25.75
2018-12-18T00:51:25.803Z,25.48
2018-12-18T00:53:54.226Z,24.45
2018-12-18T00:56:22.553Z,22.58
2018-12-18T00:58:50.875Z,25.77
2018-12-18T01:01:19.204Z,23.02
2018-12-18T01:03:52.731Z,24.63
2018-12-18T01:06:18.279Z,21.20
2018-12-18T01:08:46.789Z,20.85
2018-12-18T01:11:15.116Z,21.87
2018-12-18T01:13:43.639Z,22.58
2018-12-18T01:16:12.032Z,21.95
2018-12-18T01:18:40.465Z,22.17
2018-12-18T01:21:09.027Z,22.75
2018-12-18T01:23:37.678Z,24.15
2018-12-18T01:26:06.034Z,22.67
2018-12-18T01:28:34.424Z,21.55
2018-12-18T01:31:03.175Z,19.65
2018-12-18T01:33:31.718Z,22.02
2018-12-18T01:36:00.098Z,21.15
2018-12-18T01:38:28.456Z,21.33
2018-12-18T01:40:56.855Z,23.10
2018-12-18T01:43:25.588Z,22.82
2018-12-18T01:45:53.940Z,21.17
2018-12-18T01:48:22.255Z,20.12
2018-12-18T01:50:50.628Z,22.40
2018-12-18T01:53:18.946Z,21.87
2018-12-18T01:55:47.482Z,22.37
2018-12-18T01:58:15.907Z,20.72
2018-12-18T02:00:44.270Z,20.00
2018-12-18T02:03:12.760Z,22.07
2018-12-18T02:05:41.097Z,21.50
2018-12-18T02:08:09.527Z,21.12
2018-12-18T02:10:39.210Z,23.57
2018-12-18T02:13:07.578Z,25.10
2018-12-18T02:15:35.925Z,23.47
2018-12-18T02:18:04.249Z,22.48
2018-12-18T02:20:32.582Z,21.15
2018-12-18T02:23:01.045Z,23.52
2018-12-18T02:25:29.384Z,22.87
2018-12-18T02:27:57.679Z,22.10
2018-12-18T02:30:26.296Z,20.90
2018-12-18T02:32:54.649Z,22.40
2018-12-18T02:35:23.175Z,20.02
2018-12-18T02:37:51.530Z,20.85
2018-12-18T02:40:19.947Z,21.93
2018-12-18T02:42:48.461Z,23.05
2018-12-18T02:45:16.864Z,21.75
2018-12-18T02:47:45.178Z,24.00
2018-12-18T02:50:13.735Z,24.45
2018-12-18T02:52:42.169Z,25.00
2018-12-18T02:55:10.714Z,24.02
2018-12-18T02:57:39.125Z,22.13
2018-12-18T03:00:08.476Z,22.37
2018-12-18T03:02:36.797Z,22.13
2018-12-18T03:05:05.624Z,20.27
2018-12-18T03:07:34.194Z,21.50
2018-12-18T03:10:02.617Z,22.40
2018-12-18T03:12:30.929Z,20.62
2018-12-18T03:14:59.390Z,22.82
2018-12-18T03:17:27.938Z,23.95
2018-12-18T03:19:56.500Z,20.52
2018-12-18T03:22:24.912Z,20.05
2018-12-18T03:24:53.630Z,22.02
2018-12-18T03:27:22.065Z,22.35
2018-12-18T03:29:50.433Z,22.55
2018-12-18T03:32:23.135Z,22.10
2018-12-18T03:34:51.593Z,21.60
2018-12-18T03:37:19.956Z,19.40
2018-12-18T03:39:49.185Z,22.27
2018-12-18T03:42:17.793Z,21.07
2018-12-18T03:44:46.435Z,21.82
2018-12-18T03:47:15.006Z,19.52
2018-12-18T03:49:43.589Z,22.15
2018-12-18T03:52:12.247Z,21.80
2018-12-18T03:54:40.926Z,19.48
2018-12-18T03:57:09.567Z,21.15
2018-12-18T03:59:38.212Z,20.82
2018-12-18T04:02:06.836Z,22.70
2018-12-18T04:04:35.933Z,22.90
2018-12-18T04:07:04.677Z,21.62
2018-12-18T04:09:33.294Z,21.12
2018-12-18T04:12:07.301Z,21.45
2018-12-18T04:14:36.008Z,21.10
2018-12-18T04:17:04.740Z,20.02
2018-12-18T04:22:12.342Z,19.35
2018-12-18T04:24:41.027Z,19.15
2018-12-18T04:27:09.814Z,19.23
2018-12-18T04:29:38.599Z,19.05
2018-12-18T04:32:07.490Z,22.22
2018-12-18T04:34:42.670Z,22.52
2018-12-18T04:37:07.217Z,19.00
2018-12-18T04:39:36.212Z,21.50
2018-12-18T04:42:04.897Z,21.15
2018-12-18T04:44:33.580Z,22.60
2018-12-18T04:47:02.458Z,22.62
2018-12-18T04:49:31.156Z,23.90
2018-12-18T04:51:59.942Z,23.77
2018-12-18T04:54:28.630Z,26.07
2018-12-18T04:56:57.277Z,26.00
2018-12-18T04:59:26.202Z,26.95
2018-12-18T05:01:54.890Z,26.82
2018-12-18T05:04:23.678Z,25.32
2018-12-18T05:06:52.465Z,27.48
2018-12-18T05:09:21.457Z,25.40
2018-12-18T05:11:50.349Z,28.05
2018-12-18T05:14:19.135Z,25.62
2018-12-18T05:16:48.230Z,28.00
2018-12-18T05:19:17.531Z,27.13
2018-12-18T05:21:46.253Z,28.50
2018-12-18T05:24:15.144Z,29.52
2018-12-18T05:26:43.893Z,28.73
2018-12-18T05:29:12.680Z,27.35
2018-12-18T05:31:41.529Z,31.15
2018-12-18T05:34:10.462Z,27.42
2018-12-18T05:36:39.248Z,27.65
2018-12-18T05:39:08.360Z,30.25
2018-12-18T05:41:38.054Z,29.57
2018-12-18T05:44:06.739Z,27.07
2018-12-18T05:46:35.424Z,29.15
2018-12-18T05:49:04.185Z,28.25
2018-12-18T05:51:32.905Z,29.32
2018-12-18T05:54:01.687Z,28.02
2018-12-18T05:56:30.984Z,27.67
2018-12-18T05:59:00.698Z,27.82
2018-12-18T06:01:29.994Z,25.85
2018-12-18T06:03:58.748Z,28.42
2018-12-18T06:06:27.672Z,28.90
2018-12-18T06:08:56.461Z,27.55
2018-12-18T06:11:25.966Z,29.07
2018-12-18T06:13:54.762Z,27.85
2018-12-18T06:16:23.642Z,28.98
2018-12-18T06:18:52.639Z,29.80
2018-12-18T06:21:21.406Z,27.07
2018-12-18T06:23:50.109Z,27.10
2018-12-18T06:26:18.897Z,29.70
2018-12-18T06:28:47.800Z,29.95
2018-12-18T06:31:16.720Z,26.25
2018-12-18T06:33:45.583Z,26.62
2018-12-18T06:36:14.327Z,27.58
2018-12-18T06:38:43.245Z,30.45
2018-12-18T06:41:13.162Z,27.27
2018-12-18T06:43:42.153Z,27.00
2018-12-18T06:46:11.246Z,28.20
2018-12-18T06:48:40.317Z,28.65
2018-12-18T06:51:09.137Z,28.05
2018-12-18T06:53:38.230Z,27.42
2018-12-18T06:56:07.019Z,29.65
2018-12-18T06:58:36.521Z,31.20
2018-12-18T07:01:05.822Z,29.00
2018-12-18T07:03:34.611Z,27.58
2018-12-18T07:06:03.802Z,27.40
2018-12-18T07:08:32.695Z,27.77
2018-12-18T07:11:01.686Z,24.92
2018-12-18T07:13:30.699Z,29.55
2018-12-18T07:15:59.781Z,27.95
2018-12-18T07:18:28.562Z,28.40
2018-12-18T07:20:57.453Z,27.93
2018-12-18T07:23:26.341Z,27.85
2018-12-18T07:25:55.130Z,27.32
2018-12-18T07:28:23.917Z,28.30
2018-12-18T07:30:52.704Z,27.93
2018-12-18T07:33:21.491Z,29.00
2018-12-18T07:35:50.280Z,28.80
2018-12-18T07:38:19.171Z,26.90
2018-12-18T07:40:48.265Z,28.70
2018-12-18T07:43:17.060Z,28.52
2018-12-18T07:45:45.947Z,27.87
2018-12-18T07:48:14.677Z,28.05
2018-12-18T07:50:43.623Z,29.18
2018-12-18T07:53:12.412Z,29.02
2018-12-18T07:55:41.200Z,27.37
2018-12-18T07:58:10.089Z,29.90
2018-12-18T08:00:39.082Z,28.27
2018-12-18T08:03:07.945Z,26.70
2018-12-18T08:05:37.682Z,28.17
2018-12-18T08:08:06.679Z,29.92
2018-12-18T08:10:35.461Z,29.80
2018-12-18T08:13:04.248Z,26.80
2018-12-18T08:15:33.348Z,29.12
2018-12-18T08:18:02.263Z,29.32
2018-12-18T08:20:31.327Z,26.05
2018-12-18T08:23:00.630Z,27.17
2018-12-18T08:25:29.414Z,28.07
2018-12-18T08:27:58.312Z,26.42
2018-12-18T08:30:27.094Z,29.92
2018-12-18T08:32:55.880Z,27.27
2018-12-18T08:35:24.668Z,27.55
2018-12-18T08:37:53.457Z,31.05
2018-12-18T08:40:22.355Z,27.73
2018-12-18T08:42:51.441Z,29.57
2018-12-18T08:45:20.331Z,30.90
2018-12-18T08:47:49.428Z,30.37
2018-12-18T08:50:18.625Z,31.42
2018-12-18T08:52:47.411Z,28.47
2018-12-18T08:55:16.512Z,29.10
2018-12-18T08:57:45.407Z,27.45
2018-12-18T09:00:14.973Z,29.60
2018-12-18T09:02:43.792Z,28.80
2018-12-18T09:05:12.579Z,27.75
2018-12-18T09:07:41.573Z,27.45
2018-12-18T09:10:10.806Z,27.17
2018-12-18T09:12:39.864Z,28.73
2018-12-18T09:15:14.080Z,29.67
2018-12-18T09:17:48.199Z,26.33
2018-12-18T09:20:17.081Z,25.55
2018-12-18T09:22:45.974Z,27.25
2018-12-18T09:25:14.760Z,25.65
2018-12-18T09:27:43.546Z,24.92
2018-12-18T09:30:12.540Z,24.02
2018-12-18T09:32:41.329Z,24.85
2018-12-18T09:35:10.424Z,25.20
2018-12-18T09:37:39.213Z,25.20
2018-12-18T09:40:10.455Z,22.82
2018-12-18T09:42:44.978Z,24.90
2018-12-18T09:45:14.277Z,24.72
2018-12-18T09:47:43.082Z,25.97
2018-12-18T09:50:11.854Z,24.10
2018-12-18T09:52:40.846Z,24.52
2018-12-18T09:55:09.636Z,23.38
2018-12-18T09:57:43.851Z,24.98
2018-12-18T10:00:12.841Z,25.40
2018-12-18T10:02:41.629Z,24.25
2018-12-18T10:05:10.625Z,22.17
2018-12-18T10:07:39.511Z,24.95
2018-12-18T10:10:08.711Z,24.87
2018-12-18T10:12:42.561Z,24.75
2018-12-18T10:15:11.308Z,25.35
2018-12-18T10:17:40.193Z,24.77
2018-12-18T10:20:09.552Z,26.33
2018-12-18T10:22:38.696Z,29.23
2018-12-18T10:25:07.684Z,24.65
2018-12-18T10:27:36.582Z,22.65
2018-12-18T10:30:05.671Z,23.15
2018-12-18T10:32:34.466Z,23.12
2018-12-18T10:35:04.063Z,23.47
2018-12-18T10:37:32.964Z,21.20
2018-12-18T10:40:01.748Z,23.12
2018-12-18T10:42:30.633Z,23.42
2018-12-18T10:44:59.525Z,21.97
2018-12-18T10:47:28.311Z,23.75
2018-12-18T10:49:57.249Z,24.15
2018-12-18T10:52:26.312Z,23.22
2018-12-18T10:54:55.288Z,23.07
2018-12-18T10:57:24.191Z,23.83
2018-12-18T10:59:53.168Z,24.57
2018-12-18T11:02:21.959Z,23.65
2018-12-18T11:04:50.815Z,22.02
2018-12-18T11:07:19.724Z,23.45
2018-12-18T11:09:48.729Z,21.37
2018-12-18T11:12:21.715Z,24.18
2018-12-18T11:14:50.506Z,23.22
2018-12-18T11:17:19.292Z,25.12
2018-12-18T11:19:49.524Z,23.98
2018-12-18T11:22:18.608Z,22.30
2018-12-18T11:24:47.601Z,20.60
2018-12-18T11:27:16.390Z,24.55
2018-12-18T11:29:45.179Z,22.82
2018-12-18T11:32:14.279Z,22.87
2018-12-18T11:34:43.881Z,23.00
2018-12-18T11:37:12.884Z,22.15
2018-12-18T11:39:41.961Z,24.15
2018-12-18T11:42:10.858Z,23.22
2018-12-18T11:44:39.856Z,23.45
2018-12-18T11:47:10.174Z,24.87
2018-12-18T11:49:39.170Z,23.67
2018-12-18T11:52:07.954Z,26.00
2018-12-18T11:54:36.781Z,21.90
2018-12-18T11:57:05.473Z,22.40
2018-12-18T11:59:34.626Z,23.10
2018-12-18T12:02:03.515Z,20.30
2018-12-18T12:04:32.413Z,23.40
2018-12-18T12:07:01.239Z,21.87
2018-12-18T12:09:30.392Z,23.02
2018-12-18T12:11:59.484Z,23.22
2018-12-18T12:14:28.272Z,21.40
2018-12-18T12:16:57.143Z,23.42
2018-12-18T12:19:26.782Z,23.83
2018-12-18T12:21:55.560Z,20.65
2018-12-18T12:24:24.446Z,21.80
2018-12-18T12:26:57.536Z,22.17
2018-12-18T12:29:26.425Z,23.12
2018-12-18T12:31:55.213Z,21.27
2018-12-18T12:34:24.001Z,22.67
2018-12-18T12:36:52.891Z,24.75
2018-12-18T12:39:21.679Z,24.40
2018-12-18T12:41:50.569Z,25.17
2018-12-18T12:44:19.357Z,23.85
2018-12-18T12:46:48.148Z,21.35
2018-12-18T12:49:16.934Z,20.97
2018-12-18T12:51:45.622Z,22.62
2018-12-18T12:54:14.333Z,21.40
2018-12-18T12:56:43.192Z,23.75
2018-12-18T12:59:12.185Z,21.68
2018-12-18T13:01:42.337Z,22.87
2018-12-18T13:04:11.399Z,22.95
2018-12-18T13:06:40.394Z,22.32
2018-12-18T13:09:09.529Z,23.02
2018-12-18T13:11:38.274Z,22.22
2018-12-18T13:14:07.063Z,22.27
2018-12-18T13:16:35.955Z,21.42
2018-12-18T13:19:04.739Z,23.20
2018-12-18T13:21:33.937Z,20.88
2018-12-18T13:24:02.622Z,21.82
2018-12-18T13:26:32.126Z,24.23
2018-12-18T13:29:01.223Z,21.42
2018-12-18T13:31:30.214Z,26.42
2018-12-18T13:33:59.001Z,20.85
2018-12-18T13:36:27.790Z,24.07
2018-12-18T13:38:56.476Z,21.77
2018-12-18T13:41:25.366Z,24.85
2018-12-18T13:43:54.154Z,22.62
2018-12-18T13:46:22.942Z,22.22
2018-12-18T13:48:51.835Z,24.25
2018-12-18T13:51:20.520Z,21.10
2018-12-18T13:53:49.311Z,21.35
2018-12-18T13:56:18.099Z,21.80
2018-12-18T13:58:46.881Z,24.77
2018-12-18T14:01:15.569Z,24.60
2018-12-18T14:03:44.457Z,23.52
2018-12-18T14:06:13.141Z,23.10
2018-12-18T14:08:42.031Z,23.77
2018-12-18T14:11:10.906Z,22.73
2018-12-18T14:13:39.709Z,24.90
2018-12-18T14:16:08.599Z,26.02
2018-12-18T14:18:37.797Z,25.68
2018-12-18T14:21:06.791Z,23.50
2018-12-18T14:23:35.625Z,26.12
2018-12-18T14:26:04.478Z,23.42
2018-12-18T14:28:33.255Z,28.32
2018-12-18T14:31:02.349Z,25.10
2018-12-18T14:33:31.549Z,25.10
2018-12-18T14:36:00.539Z,26.15
2018-12-18T14:38:29.258Z,27.15
2018-12-18T14:40:58.219Z,25.70
2018-12-18T14:43:27.414Z,28.07
2018-12-18T14:45:56.306Z,29.65
2018-12-18T14:48:25.336Z,25.75
2018-12-18T14:50:54.195Z,29.10
2018-12-18T14:53:22.976Z,26.60
2018-12-18T14:55:51.771Z,26.82
2018-12-18T14:58:20.553Z,25.08
2018-12-18T15:00:49.240Z,25.12
2018-12-18T15:03:18.027Z,25.88
2018-12-18T15:05:46.711Z,27.45
2018-12-18T15:08:15.607Z,24.45
2018-12-18T15:10:44.594Z,26.15
2018-12-18T15:13:13.484Z,24.77
2018-12-18T15:15:42.477Z,25.65
2018-12-18T15:18:11.776Z,25.50
2018-12-18T15:20:40.974Z,24.07
2018-12-18T15:23:09.967Z,24.07
2018-12-18T15:25:38.755Z,24.07
2018-12-18T15:28:07.640Z,25.50
2018-12-18T15:30:36.538Z,25.92
2018-12-18T15:33:05.437Z,24.85
2018-12-18T15:35:34.522Z,24.32
2018-12-18T15:38:03.617Z,29.90
2018-12-18T15:40:33.739Z,28.80
2018-12-18T15:43:02.625Z,28.70
2018-12-18T15:45:31.423Z,32.38
2018-12-18T15:48:00.200Z,32.20
2018-12-18T15:50:29.093Z,31.62
2018-12-18T15:52:57.981Z,30.32
2018-12-18T15:55:26.770Z,31.02
2018-12-18T15:57:55.592Z,29.48
2018-12-18T16:00:24.547Z,33.15
2018-12-18T16:02:53.441Z,32.45
2018-12-18T16:05:22.268Z,29.57
2018-12-18T16:07:51.120Z,31.15
2018-12-18T16:10:20.063Z,30.72
2018-12-18T16:12:49.102Z,31.17
2018-12-18T16:15:19.434Z,31.60
2018-12-18T16:17:49.854Z,29.23
2018-12-18T16:20:18.987Z,30.77
2018-12-18T16:22:48.865Z,33.50
2018-12-18T16:25:18.100Z,31.27
2018-12-18T16:27:46.850Z,35.05
2018-12-18T16:30:15.740Z,31.30
2018-12-18T16:32:44.729Z,32.10
2018-12-18T16:35:14.854Z,34.50
2018-12-18T16:37:43.843Z,33.08
2018-12-18T16:40:12.732Z,30.62
2018-12-18T16:42:41.837Z,37.35
2018-12-18T16:45:10.617Z,37.70
2018-12-18T16:47:39.403Z,38.15
2018-12-18T16:50:08.496Z,39.75
2018-12-18T16:52:38.032Z,42.17
2018-12-18T16:55:07.096Z,39.40
2018-12-18T16:57:35.884Z,39.33
2018-12-18T17:00:06.049Z,34.98
2018-12-18T17:02:34.998Z,37.42
2018-12-18T17:05:03.989Z,37.50
2018-12-18T17:07:32.776Z,34.45
2018-12-18T17:10:01.895Z,35.05
2018-12-18T17:12:30.771Z,35.50
2018-12-18T17:14:59.651Z,33.80
2018-12-18T17:17:28.543Z,33.58
2018-12-18T17:19:57.432Z,34.05
2018-12-18T17:22:26.118Z,31.35
2018-12-18T17:24:54.907Z,32.30
2018-12-18T17:27:23.694Z,32.20
2018-12-18T17:29:52.513Z,32.23
2018-12-18T17:32:21.269Z,35.75
2018-12-18T17:34:50.160Z,33.28
2018-12-18T17:37:19.109Z,33.05
2018-12-18T17:39:48.350Z,31.42
2018-12-18T17:42:17.243Z,31.73
2018-12-18T17:44:46.044Z,33.25
2018-12-18T17:47:14.918Z,32.08
2018-12-18T17:49:43.609Z,32.65
2018-12-18T17:52:12.493Z,31.07
2018-12-18T17:54:41.387Z,29.98
2018-12-18T17:57:10.376Z,30.70
2018-12-18T17:59:39.410Z,34.75
2018-12-18T18:02:09.015Z,33.33
2018-12-18T18:04:39.054Z,34.18
2018-12-18T18:07:07.887Z,34.43
2018-12-18T18:09:36.812Z,31.17
2018-12-18T18:12:05.766Z,31.73
2018-12-18T18:14:36.153Z,34.60
2018-12-18T18:17:05.499Z,33.23
2018-12-18T18:19:34.282Z,31.87
2018-12-18T18:22:02.964Z,33.85
2018-12-18T18:24:32.571Z,33.10
2018-12-18T18:27:01.461Z,30.68
2018-12-18T18:29:30.254Z,33.05
2018-12-18T18:31:59.156Z,29.35
2018-12-18T18:34:28.234Z,31.02
2018-12-18T18:36:57.124Z,31.17
2018-12-18T18:39:25.914Z,31.25
2018-12-18T18:41:54.701Z,31.55
2018-12-18T18:44:23.694Z,31.77
2018-12-18T18:46:52.787Z,30.08
2018-12-18T18:49:22.190Z,31.35
2018-12-18T18:51:51.182Z,32.65
2018-12-18T18:54:19.970Z,30.55
2018-12-18T18:56:48.862Z,32.50
2018-12-18T18:59:17.648Z,31.80
2018-12-18T19:01:46.435Z,32.73
2018-12-18T19:04:15.429Z,30.08
2018-12-18T19:06:44.629Z,31.35
2018-12-18T19:09:13.417Z,29.60
2018-12-18T19:11:42.307Z,29.70
2018-12-18T19:14:11.059Z,29.95
2018-12-18T19:16:39.778Z,26.93
2018-12-18T19:19:08.731Z,29.67
2018-12-18T19:21:39.003Z,33.38
2018-12-18T19:24:07.959Z,35.35
2018-12-18T19:26:37.384Z,35.38
2018-12-18T19:29:06.083Z,36.40
2018-12-18T19:31:34.959Z,38.48
2018-12-18T19:34:03.956Z,36.10
2018-12-18T19:36:33.669Z,34.10
2018-12-18T19:39:04.811Z,33.63
2018-12-18T19:41:33.696Z,36.48
2018-12-18T19:44:02.491Z,31.68
2018-12-18T19:46:31.270Z,37.90
2018-12-18T19:49:00.059Z,32.42
2018-12-18T19:51:29.052Z,31.05
2018-12-18T19:53:57.843Z,33.78
2018-12-18T19:56:26.525Z,34.05
2018-12-18T19:58:55.314Z,33.55
2018-12-18T20:01:24.202Z,33.78
2018-12-18T20:03:53.093Z,33.35
2018-12-18T20:06:21.886Z,34.50
2018-12-18T20:08:50.773Z,33.25
2018-12-18T20:11:19.558Z,33.65
2018-12-18T20:13:48.352Z,35.63
2018-12-18T20:16:17.483Z,33.70
2018-12-18T20:18:46.334Z,32.10
2018-12-18T20:21:15.119Z,35.10
2018-12-18T20:23:44.010Z,34.55
2018-12-18T20:26:13.112Z,35.08
2018-12-18T20:28:41.790Z,33.60
2018-12-18T20:31:10.578Z,34.05
2018-12-18T20:33:39.570Z,34.00
2018-12-18T20:36:08.665Z,34.08
2018-12-18T20:38:37.350Z,33.90
2018-12-18T20:41:06.139Z,32.88
2018-12-18T20:43:34.847Z,33.45
2018-12-18T20:46:04.125Z,35.40
2018-12-18T20:48:32.817Z,32.33
2018-12-18T20:51:01.605Z,33.42
2018-12-18T20:53:30.393Z,33.45
2018-12-18T20:55:59.277Z,34.45
2018-12-18T20:58:28.069Z,34.67
2018-12-18T21:00:57.368Z,35.73
2018-12-18T21:03:26.201Z,36.88
2018-12-18T21:05:55.247Z,38.33
2018-12-18T21:08:23.935Z,34.85
2018-12-18T21:10:52.723Z,38.30
2018-12-18T21:13:28.064Z,35.63
2018-12-18T21:15:56.989Z,36.83
2018-12-18T21:18:25.844Z,36.77
2018-12-18T21:20:54.632Z,36.48
2018-12-18T21:23:24.008Z,33.42
2018-12-18T21:25:52.789Z,39.13
2018-12-18T21:28:21.637Z,42.95
2018-12-18T21:30:50.531Z,46.73
2018-12-18T21:33:19.334Z,41.65
2018-12-18T21:35:48.104Z,44.70
2018-12-18T21:38:16.790Z,36.60
2018-12-18T21:40:46.093Z,39.18
2018-12-18T21:43:14.777Z,34.58
2018-12-18T21:45:43.664Z,34.18
2018-12-18T21:48:12.456Z,34.63
2018-12-18T21:50:41.241Z,31.77
2018-12-18T21:53:10.029Z,35.23
2018-12-18T21:55:38.787Z,35.10
2018-12-18T21:58:07.669Z,39.88
2018-12-18T22:00:36.598Z,33.83
2018-12-18T22:03:06.189Z,39.13
2018-12-18T22:05:35.300Z,36.55
2018-12-18T22:08:04.206Z,37.45
2018-12-18T22:10:33.024Z,38.70
2018-12-18T22:13:01.807Z,40.28
2018-12-18T22:15:30.654Z,39.65
2018-12-18T22:17:59.647Z,36.00
2018-12-18T22:20:28.333Z,39.55
2018-12-18T22:22:57.635Z,40.00
2018-12-18T22:25:26.318Z,35.55
2018-12-18T22:27:55.541Z,32.83
2018-12-18T22:30:24.615Z,33.65
2018-12-18T22:32:53.501Z,28.52
2018-12-18T22:35:29.457Z,29.87
2018-12-18T22:37:58.244Z,28.75
2018-12-18T22:40:27.032Z,30.05
2018-12-18T22:42:55.822Z,31.75
2018-12-18T22:45:24.611Z,26.60
2018-12-18T22:47:53.703Z,26.85
2018-12-18T22:50:22.592Z,31.65
2018-12-18T22:52:51.379Z,31.97
2018-12-18T22:55:20.167Z,29.85
2018-12-18T22:57:49.058Z,31.48
2018-12-18T23:00:23.068Z,29.72
2018-12-18T23:02:51.943Z,30.77
2018-12-18T23:05:20.746Z,30.52
2018-12-18T23:07:49.639Z,28.47
2018-12-18T23:10:18.425Z,30.77
2018-12-18T23:12:47.212Z,29.23
2018-12-18T23:15:16.102Z,27.60
2018-12-18T23:17:44.891Z,26.42
2018-12-18T23:20:20.113Z,26.50
2018-12-18T23:22:49.227Z,27.32
2018-12-18T23:25:18.010Z,29.48
2018-12-18T23:27:46.905Z,29.63
2018-12-18T23:30:15.694Z,26.95
2018-12-18T23:32:44.477Z,28.50
2018-12-18T23:35:13.439Z,25.92
2018-12-18T23:37:42.667Z,27.22
2018-12-18T23:40:11.457Z,27.37
2018-12-18T23:42:40.345Z,29.63
2018-12-18T23:45:09.131Z,28.57
2018-12-18T23:47:38.125Z,27.62
2018-12-18T23:50:06.913Z,27.65
2018-12-18T23:52:35.701Z,28.67
2018-12-18T23:55:04.693Z,30.88
2018-12-18T23:57:33.480Z,30.20
